Terminal Aerodrome Forecast
Issued by NWS Charleston, WV

Current Version | Previous Version | Text Only | Print | Product List | Glossary Off
Versions: 1 2 3 4 5 6 7 8 9 10 11 12 13 14 15 16 17 18 19 20 21 22 23 24 25 26

785
FTUS41 KRLX 250857 AAA
TAFEKN
TAF AMD
KEKN 250857Z 2509/2606 17003KT P6SM FEW250
     FM251600 23003KT P6SM SCT250
     FM251800 23003KT P6SM BKN070
     FM252200 22003KT P6SM SCT060=

USA.gov is the U.S. government's official web portal to all federal, state and local government web resources and services.